Terminal Aerodrome Forecast
Issued by NWS

Home | Current Version | Previous Version | Text Only | Print | Product List | Glossary On
Versions: 1 2 3 4 5 6 7 8 9 10 11 12 13 14 15 16 17 18
494
FTUS41 KCAR 141122
TAFFVE
TAF
KFVE 141122Z 1412/1512 31009G20KT P6SM SCT030
     FM142300 27010KT P6SM SCT070
     FM150900 27006KT P6SM FEW250=

USA.gov is the U.S. government's official web portal to all federal, state and local government web resources and services.